Time;durP1;ratioP1;P1;durP2;ratioP2;P2;SDS_P1;SDS_P2;PMS_P1;PMS_P2;Temp;Humidity;BMP_temperature;BMP_pressure;BME280_temperature;BME280_humidity;BME280_pressure;Samples;Min_cycle;Max_cycle;Signal;HPM_P1;HPM_P2
2024/03/24 00:00:14;;;;;;;1.60;1.07;;;6.10;99.90;;;;;;4932166;29;20244;-83
2024/03/24 00:02:42;;;;;;;1.90;1.30;;;6.30;99.90;;;;;;4947831;28;20537;-83
2024/03/24 00:05:08;;;;;;;1.10;1.00;;;6.60;99.90;;;;;;4934331;29;20188;-82
2024/03/24 00:07:33;;;;;;;1.83;1.20;;;5.90;99.90;;;;;;4934128;29;20202;-82
2024/03/24 00:09:59;;;;;;;1.60;0.93;;;6.70;99.90;;;;;;4935391;29;20232;-83
2024/03/24 00:12:25;;;;;;;1.33;1.00;;;6.20;99.90;;;;;;4934576;29;20516;-82
2024/03/24 00:14:50;;;;;;;1.17;1.00;;;6.40;99.90;;;;;;4934556;29;20205;-82
2024/03/24 00:17:16;;;;;;;1.53;0.80;;;5.90;99.90;;;;;;4934482;29;20209;-83
2024/03/24 00:19:41;;;;;;;1.60;0.90;;;6.40;99.90;;;;;;4933088;29;20229;-82
2024/03/24 00:22:07;;;;;;;2.60;1.00;;;6.30;99.90;;;;;;4929712;29;20197;-82
2024/03/24 00:24:32;;;;;;;1.00;0.90;;;6.40;99.90;;;;;;4934260;29;20218;-83
2024/03/24 00:26:59;;;;;;;1.20;1.10;;;6.40;99.90;;;;;;4934179;29;20220;-83
2024/03/24 00:29:25;;;;;;;1.15;1.05;;;6.30;99.90;;;;;;4933649;29;20456;-83
2024/03/24 00:31:51;;;;;;;0.90;0.90;;;6.20;99.90;;;;;;4930183;29;20245;-82
2024/03/24 00:34:17;;;;;;;3.55;0.90;;;6.20;99.90;;;;;;4933462;29;20429;-83
2024/03/24 00:36:42;;;;;;;1.07;0.90;;;6.10;99.90;;;;;;4934014;29;20209;-83
2024/03/24 00:39:08;;;;;;;2.40;1.20;;;6.20;99.90;;;;;;4933020;29;20727;-83
2024/03/24 00:41:34;;;;;;;1.60;1.10;;;6.10;99.90;;;;;;4934433;29;20695;-83
2024/03/24 00:44:00;;;;;;;1.40;1.20;;;6.10;99.90;;;;;;4928498;29;20604;-82
2024/03/24 00:46:25;;;;;;;1.23;1.10;;;6.20;99.90;;;;;;4934943;29;20991;-83
2024/03/24 00:48:52;;;;;;;1.40;0.80;;;6.00;99.90;;;;;;4934616;29;20189;-83
2024/03/24 00:51:18;;;;;;;1.77;1.00;;;5.60;99.90;;;;;;4932529;29;20712;-83
2024/03/24 00:53:44;;;;;;;1.90;1.20;;;5.80;99.90;;;;;;4931442;29;20193;-83
2024/03/24 00:56:09;;;;;;;1.00;1.00;;;5.80;99.90;;;;;;4934302;29;20895;-84
2024/03/24 00:58:38;;;;;;;1.33;0.80;;;6.20;99.90;;;;;;4935101;29;20193;-84
2024/03/24 01:01:05;;;;;;;1.30;1.20;;;5.80;99.90;;;;;;4932792;29;20269;-81
2024/03/24 01:03:30;;;;;;;1.70;0.95;;;5.70;99.90;;;;;;4932687;29;20211;-83
2024/03/24 01:05:56;;;;;;;2.10;1.00;;;5.20;99.90;;;;;;4934991;29;20635;-83
2024/03/24 01:08:21;;;;;;;1.10;1.00;;;5.40;99.90;;;;;;4934257;29;20269;-82
2024/03/24 01:10:47;;;;;;;1.93;1.10;;;5.80;99.90;;;;;;4933182;29;20213;-83
2024/03/24 01:13:12;;;;;;;1.00;0.90;;;5.50;99.90;;;;;;4933074;29;20284;-83
2024/03/24 01:15:43;;;;;;;1.27;0.93;;;5.60;99.90;;;;;;4933724;29;20325;-82
2024/03/24 01:18:09;;;;;;;1.45;1.00;;;5.20;99.90;;;;;;4934465;29;20194;-82
2024/03/24 01:20:34;;;;;;;1.37;1.00;;;5.90;99.90;;;;;;4934061;29;20233;-84
2024/03/24 01:23:00;;;;;;;1.97;1.27;;;5.90;99.90;;;;;;4930342;29;20194;-83
2024/03/24 01:25:25;;;;;;;3.30;1.20;;;5.80;99.90;;;;;;4935772;29;20237;-82
2024/03/24 01:27:51;;;;;;;1.20;0.90;;;5.90;99.90;;;;;;4933075;29;20224;-81
2024/03/24 01:30:16;;;;;;;1.47;1.17;;;6.20;99.90;;;;;;4933533;29;20663;-84
2024/03/24 01:32:42;;;;;;;2.07;1.13;;;6.10;99.90;;;;;;4951928;28;20217;-83
2024/03/24 01:35:08;;;;;;;2.53;1.50;;;6.20;99.90;;;;;;4942141;29;20225;-81
2024/03/24 01:37:35;;;;;;;1.60;1.50;;;6.10;99.90;;;;;;4937683;29;20224;-82
2024/03/24 01:40:00;;;;;;;1.08;0.80;;;6.10;99.90;;;;;;4941003;29;20241;-82
2024/03/24 01:42:26;;;;;;;1.00;1.00;;;6.00;99.90;;;;;;4940403;29;20189;-84
2024/03/24 01:44:51;;;;;;;1.60;1.00;;;5.40;99.90;;;;;;4945887;29;20249;-83
2024/03/24 01:47:17;;;;;;;1.07;0.97;;;5.70;99.90;;;;;;4934394;29;20218;-84
2024/03/24 01:49:43;;;;;;;1.23;1.10;;;5.90;99.90;;;;;;4934390;29;20189;-82
2024/03/24 01:52:11;;;;;;;1.47;0.80;;;5.90;99.90;;;;;;4936282;29;20563;-82
2024/03/24 01:54:37;;;;;;;0.80;0.80;;;5.80;99.90;;;;;;4924160;29;21076;-83
2024/03/24 01:57:03;;;;;;;1.47;1.17;;;6.00;99.90;;;;;;4950592;28;20225;-83
2024/03/24 01:59:28;;;;;;;1.40;0.90;;;5.80;99.90;;;;;;4933629;29;20279;-83
2024/03/24 02:01:55;;;;;;;1.40;1.20;;;5.80;99.90;;;;;;4934970;29;20516;-82
2024/03/24 02:04:21;;;;;;;0.75;0.75;;;6.10;99.90;;;;;;4932840;29;20272;-82
2024/03/24 02:06:47;;;;;;;3.77;1.10;;;6.00;99.90;;;;;;4937331;29;20289;-83
2024/03/24 02:09:12;;;;;;;1.07;0.90;;;5.90;99.90;;;;;;4936549;29;20188;-84
2024/03/24 02:11:38;;;;;;;1.00;1.00;;;5.50;99.90;;;;;;4933219;29;20313;-83
2024/03/24 02:14:03;;;;;;;1.70;1.10;;;5.50;99.90;;;;;;4929133;29;20693;-82
2024/03/24 02:16:29;;;;;;;0.97;0.90;;;6.10;99.90;;;;;;4935010;29;20217;-83
2024/03/24 02:18:55;;;;;;;1.00;0.90;;;5.70;99.90;;;;;;4939306;29;20201;-83
2024/03/24 02:21:21;;;;;;;0.93;0.93;;;6.00;99.90;;;;;;4940420;29;20668;-85
2024/03/24 02:23:48;;;;;;;1.30;1.10;;;6.50;99.90;;;;;;4940077;29;20197;-86
2024/03/24 02:26:14;;;;;;;1.33;1.05;;;6.10;99.90;;;;;;4936841;29;21415;-81
2024/03/24 02:28:40;;;;;;;2.78;0.90;;;6.20;99.90;;;;;;4941091;29;20217;-84
2024/03/24 02:31:05;;;;;;;1.47;1.33;;;5.80;99.90;;;;;;4937187;29;20201;-86
2024/03/24 02:33:31;;;;;;;0.80;0.70;;;6.10;99.90;;;;;;4938014;29;20201;-85
2024/03/24 02:35:57;;;;;;;1.40;1.30;;;5.90;99.90;;;;;;4938054;29;20210;-85
2024/03/24 02:38:22;;;;;;;0.80;0.70;;;5.50;99.90;;;;;;4937636;29;20240;-84
2024/03/24 02:40:48;;;;;;;1.57;1.07;;;5.60;99.90;;;;;;4941321;29;20205;-85
2024/03/24 02:43:14;;;;;;;2.65;0.98;;;6.30;99.90;;;;;;4939904;29;20233;-85
2024/03/24 02:45:40;;;;;;;3.10;1.03;;;5.50;99.90;;;;;;4943985;29;20320;-85
2024/03/24 02:48:05;;;;;;;1.43;1.20;;;5.10;99.90;;;;;;4941532;29;20193;-86
2024/03/24 02:50:31;;;;;;;1.67;1.40;;;5.70;99.90;;;;;;4935358;29;20194;-86
2024/03/24 02:52:56;;;;;;;2.07;1.13;;;5.40;99.90;;;;;;4939333;29;20449;-86
2024/03/24 02:55:25;;;;;;;4.40;1.50;;;5.60;99.90;;;;;;4939670;29;20228;-84
2024/03/24 02:57:51;;;;;;;1.75;1.45;;;5.40;99.90;;;;;;4940294;29;20189;-85
2024/03/24 03:00:17;;;;;;;1.38;0.88;;;5.70;99.90;;;;;;4939476;29;20205;-85
2024/03/24 03:02:43;;;;;;;1.40;1.00;;;5.50;99.90;;;;;;4940445;29;20186;-85
2024/03/24 03:05:09;;;;;;;0.80;0.80;;;5.60;99.90;;;;;;4941048;29;20281;-86
2024/03/24 03:07:35;;;;;;;0.82;0.82;;;5.20;99.90;;;;;;4940303;29;20272;-86
2024/03/24 03:10:01;;;;;;;1.57;0.97;;;6.00;99.90;;;;;;4937789;29;20292;-85
2024/03/24 03:12:26;;;;;;;1.20;0.67;;;5.70;99.90;;;;;;4941326;29;20627;-86
2024/03/24 03:14:52;;;;;;;1.13;0.87;;;5.40;99.90;;;;;;4939224;29;20185;-84
2024/03/24 03:17:17;;;;;;;0.90;0.70;;;5.60;99.90;;;;;;4940725;29;20208;-84
2024/03/24 03:19:43;;;;;;;1.00;0.90;;;5.60;99.90;;;;;;4938955;29;20209;-85
2024/03/24 03:22:08;;;;;;;1.00;0.80;;;5.30;99.90;;;;;;4937508;29;20227;-85
2024/03/24 03:24:34;;;;;;;1.50;0.87;;;5.30;99.90;;;;;;4938214;29;20836;-86
2024/03/24 03:26:59;;;;;;;1.53;0.93;;;5.50;99.90;;;;;;4935535;29;20213;-85
2024/03/24 03:29:25;;;;;;;1.53;1.30;;;5.50;99.90;;;;;;4938425;29;20193;-86
2024/03/24 03:31:50;;;;;;;1.40;0.90;;;5.40;99.90;;;;;;4939150;29;20703;-86
2024/03/24 03:34:16;;;;;;;1.93;0.90;;;5.60;99.90;;;;;;4937699;29;20233;-87
2024/03/24 03:36:42;;;;;;;1.05;0.65;;;5.40;99.90;;;;;;4938794;29;20216;-86
2024/03/24 03:39:08;;;;;;;0.80;0.63;;;5.60;99.90;;;;;;4939270;29;20574;-86
2024/03/24 03:41:34;;;;;;;2.20;0.95;;;5.40;99.90;;;;;;4941141;29;20385;-85
2024/03/24 03:43:59;;;;;;;1.23;0.80;;;5.60;99.90;;;;;;4938936;29;20618;-85
2024/03/24 03:46:25;;;;;;;0.90;0.80;;;5.50;99.90;;;;;;4942237;29;20210;-85
2024/03/24 03:48:50;;;;;;;1.53;0.70;;;5.40;99.90;;;;;;4944323;29;20213;-85
2024/03/24 03:51:27;;;;;;;1.37;1.20;;;5.50;99.90;;;;;;4948516;29;20190;-86
2024/03/24 03:53:55;;;;;;;0.95;0.77;;;5.40;99.90;;;;;;4949160;29;20252;-86
2024/03/24 03:56:20;;;;;;;0.90;0.70;;;5.70;99.90;;;;;;4950099;29;20210;-84
2024/03/24 03:58:46;;;;;;;0.80;0.60;;;5.50;99.90;;;;;;4948167;29;20196;-83
2024/03/24 04:01:11;;;;;;;0.70;0.70;;;5.60;99.90;;;;;;4942162;29;20223;-86
2024/03/24 04:03:37;;;;;;;0.90;0.60;;;5.60;99.90;;;;;;4939040;29;20684;-86
2024/03/24 04:06:04;;;;;;;0.90;0.90;;;6.10;99.90;;;;;;4939248;29;20208;-86
2024/03/24 04:08:29;;;;;;;0.98;0.70;;;5.50;99.90;;;;;;4939687;29;20249;-85
2024/03/24 04:10:55;;;;;;;1.03;0.77;;;5.50;99.90;;;;;;4932843;29;20233;-85
2024/03/24 04:13:20;;;;;;;0.90;0.77;;;4.80;99.90;;;;;;4939107;29;20198;-85
2024/03/24 04:15:46;;;;;;;1.40;0.80;;;5.20;99.90;;;;;;4939001;29;20292;-85
2024/03/24 04:18:11;;;;;;;1.80;1.00;;;4.90;99.90;;;;;;4938996;29;20269;-86
2024/03/24 04:20:37;;;;;;;1.03;0.90;;;5.40;99.90;;;;;;4939991;29;20205;-84
2024/03/24 04:23:04;;;;;;;1.27;0.75;;;5.90;99.90;;;;;;4940793;29;20879;-85
2024/03/24 04:25:29;;;;;;;3.92;0.90;;;5.40;99.90;;;;;;4937479;29;20208;-85
2024/03/24 04:27:55;;;;;;;1.17;0.93;;;5.50;99.90;;;;;;4939495;29;20193;-85
2024/03/24 04:30:20;;;;;;;0.83;0.70;;;5.40;99.90;;;;;;4937666;29;20189;-85
2024/03/24 04:32:46;;;;;;;1.00;0.90;;;5.70;99.90;;;;;;4938463;29;20280;-85
2024/03/24 04:35:12;;;;;;;1.00;0.90;;;5.70;99.90;;;;;;4938999;29;20200;-86
2024/03/24 04:37:38;;;;;;;0.93;0.80;;;4.90;99.90;;;;;;4939101;29;20209;-85
2024/03/24 04:40:08;;;;;;;1.27;1.07;;;5.40;99.90;;;;;;4941000;29;20212;-86
2024/03/24 04:42:34;;;;;;;1.30;1.20;;;5.50;99.90;;;;;;4939073;29;20340;-86
2024/03/24 04:45:03;;;;;;;1.60;0.90;;;5.40;99.90;;;;;;4943643;29;20213;-84
2024/03/24 04:47:29;;;;;;;0.95;0.88;;;6.00;99.90;;;;;;4946454;29;20225;-84
2024/03/24 04:49:55;;;;;;;1.50;0.80;;;5.50;99.90;;;;;;4947297;29;20207;-85
2024/03/24 04:52:21;;;;;;;2.00;0.90;;;5.90;99.90;;;;;;4948335;29;20258;-85
2024/03/24 04:54:46;;;;;;;1.00;0.80;;;5.60;99.90;;;;;;4949545;29;20192;-83
2024/03/24 04:57:12;;;;;;;1.00;0.80;;;5.40;99.90;;;;;;4953215;28;20252;-83
2024/03/24 04:59:37;;;;;;;2.00;0.87;;;4.90;99.90;;;;;;4950441;29;20195;-85
2024/03/24 05:02:03;;;;;;;1.20;1.10;;;5.30;99.90;;;;;;4950298;29;20192;-85
2024/03/24 05:04:29;;;;;;;1.20;1.10;;;5.30;99.90;;;;;;4950026;29;20184;-85
2024/03/24 05:06:54;;;;;;;0.90;0.80;;;5.70;99.90;;;;;;4950816;29;20468;-85
2024/03/24 05:09:22;;;;;;;0.87;0.83;;;5.40;99.90;;;;;;4949624;29;20189;-85
2024/03/24 05:11:47;;;;;;;1.23;0.98;;;5.50;99.90;;;;;;4985156;23;20297;-84
2024/03/24 05:14:13;;;;;;;1.33;0.73;;;5.50;99.90;;;;;;4936944;29;20188;-84
2024/03/24 05:16:38;;;;;;;0.80;0.70;;;5.90;99.90;;;;;;4936235;29;20215;-84
2024/03/24 05:19:05;;;;;;;0.70;0.70;;;5.50;99.90;;;;;;4950964;29;20223;-84
2024/03/24 05:21:31;;;;;;;0.80;0.73;;;5.30;99.90;;;;;;4932685;29;20256;-84
2024/03/24 05:23:56;;;;;;;1.77;0.80;;;5.60;99.90;;;;;;4927769;29;20176;-84
2024/03/24 05:26:22;;;;;;;1.33;0.70;;;5.10;99.90;;;;;;4939377;29;20205;-85
2024/03/24 05:28:48;;;;;;;1.00;0.90;;;5.10;99.90;;;;;;4938058;29;20195;-84
2024/03/24 05:31:14;;;;;;;0.70;0.60;;;5.50;99.90;;;;;;4950881;29;20200;-84
2024/03/24 05:33:39;;;;;;;1.00;0.75;;;5.00;99.90;;;;;;4928092;29;20257;-85
2024/03/24 05:36:05;;;;;;;1.57;0.90;;;5.40;99.90;;;;;;4929729;29;20267;-86
2024/03/24 05:38:34;;;;;;;1.67;1.43;;;5.30;99.90;;;;;;4924120;29;20196;-85
2024/03/24 05:41:02;;;;;;;0.90;0.73;;;5.40;99.90;;;;;;4925559;29;20481;-86
2024/03/24 05:43:28;;;;;;;0.80;0.70;;;5.40;99.90;;;;;;4927912;29;20281;-85
2024/03/24 05:45:54;;;;;;;0.87;0.83;;;4.70;99.90;;;;;;4941413;29;20271;-86
2024/03/24 05:48:21;;;;;;;1.60;0.98;;;5.80;99.90;;;;;;4929715;29;20238;-85
2024/03/24 05:50:55;;;;;;;0.85;0.70;;;5.20;99.90;;;;;;4924152;29;20686;-85
2024/03/24 05:53:20;;;;;;;0.80;0.80;;;5.70;99.90;;;;;;4924466;29;20225;-86
2024/03/24 05:55:46;;;;;;;0.90;0.70;;;5.20;99.90;;;;;;4928921;29;20211;-86
2024/03/24 05:58:11;;;;;;;1.10;1.00;;;5.20;99.90;;;;;;4943101;29;20231;-86
2024/03/24 06:00:37;;;;;;;1.10;1.00;;;5.40;99.90;;;;;;4925957;29;20299;-86
2024/03/24 06:03:03;;;;;;;2.03;1.00;;;5.80;99.90;;;;;;4926465;29;20199;-86
2024/03/24 06:05:28;;;;;;;0.90;0.80;;;5.40;99.90;;;;;;4925659;29;20315;-85
2024/03/24 06:07:54;;;;;;;1.10;0.80;;;5.50;99.90;;;;;;4924321;29;20190;-85
2024/03/24 06:10:19;;;;;;;0.93;0.63;;;5.50;99.90;;;;;;4925878;29;20204;-86
2024/03/24 06:12:45;;;;;;;1.70;0.80;;;5.60;99.90;;;;;;4924298;29;20182;-86
2024/03/24 06:15:10;;;;;;;1.07;0.97;;;5.70;99.90;;;;;;4922156;29;20214;-86
2024/03/24 06:17:36;;;;;;;1.00;0.90;;;5.50;99.90;;;;;;4925777;29;20252;-85
2024/03/24 06:20:01;;;;;;;0.80;0.80;;;5.60;99.90;;;;;;4922899;29;20217;-85
2024/03/24 06:22:27;;;;;;;0.97;0.60;;;6.40;99.90;;;;;;4924607;29;20651;-85
2024/03/24 06:24:52;;;;;;;1.53;1.00;;;6.30;99.90;;;;;;4941240;29;20570;-86
2024/03/24 06:27:18;;;;;;;1.93;0.80;;;6.10;99.90;;;;;;4922844;29;20230;-85
2024/03/24 06:29:43;;;;;;;0.80;0.77;;;6.00;99.90;;;;;;4927021;29;20212;-86
2024/03/24 06:32:09;;;;;;;0.70;0.70;;;6.30;99.90;;;;;;4928331;29;20186;-86
2024/03/24 06:34:34;;;;;;;1.67;0.87;;;6.50;99.90;;;;;;4925977;29;20220;-86
2024/03/24 06:37:00;;;;;;;1.43;0.80;;;6.40;99.90;;;;;;4928415;29;20214;-85
2024/03/24 06:39:25;;;;;;;1.20;1.10;;;6.00;99.90;;;;;;4937616;29;20197;-84
2024/03/24 06:41:51;;;;;;;0.90;0.80;;;6.30;99.90;;;;;;4931853;29;20610;-85
2024/03/24 06:44:17;;;;;;;1.10;0.70;;;6.00;99.90;;;;;;4929178;29;20201;-86
2024/03/24 06:46:44;;;;;;;1.10;0.83;;;6.40;99.90;;;;;;4943226;29;20201;-86
2024/03/24 06:49:10;;;;;;;0.75;0.70;;;6.10;99.90;;;;;;4930377;29;20186;-86
2024/03/24 06:51:35;;;;;;;1.10;0.97;;;6.50;99.90;;;;;;4926345;29;20182;-86
2024/03/24 06:54:01;;;;;;;1.00;0.87;;;6.70;99.90;;;;;;4925240;29;20190;-85
2024/03/24 06:56:26;;;;;;;0.80;0.70;;;6.90;99.90;;;;;;4942955;29;20209;-85
2024/03/24 06:58:52;;;;;;;1.30;1.20;;;7.20;99.90;;;;;;4925351;29;20562;-85
2024/03/24 07:01:20;;;;;;;0.90;0.90;;;7.20;99.90;;;;;;4922557;29;20220;-86
2024/03/24 07:03:46;;;;;;;1.45;0.88;;;7.70;99.90;;;;;;4929936;29;20489;-86
2024/03/24 07:06:14;;;;;;;1.93;0.93;;;7.70;99.90;;;;;;4941790;29;20738;-86
2024/03/24 07:08:43;;;;;;;1.10;0.93;;;7.90;99.90;;;;;;4924156;29;20215;-86
2024/03/24 07:11:09;;;;;;;1.30;1.00;;;7.80;99.90;;;;;;4925355;29;20204;-84
2024/03/24 07:13:34;;;;;;;2.20;1.03;;;7.90;99.90;;;;;;4921121;29;20359;-83
2024/03/24 07:16:00;;;;;;;2.07;1.30;;;8.00;99.90;;;;;;4920775;29;20694;-84
2024/03/24 07:18:26;;;;;;;0.97;0.80;;;7.90;99.90;;;;;;4926553;29;20241;-84
2024/03/24 07:20:59;;;;;;;1.20;1.10;;;8.00;99.90;;;;;;4920181;29;20468;-84
2024/03/24 07:23:24;;;;;;;2.13;1.10;;;8.00;99.90;;;;;;4919989;29;20186;-83
2024/03/24 07:25:50;;;;;;;3.07;1.07;;;8.20;99.90;;;;;;4923697;29;20302;-84
2024/03/24 07:28:15;;;;;;;1.40;1.30;;;8.70;99.50;;;;;;4927985;29;20186;-84
2024/03/24 07:30:41;;;;;;;1.67;1.40;;;8.20;99.40;;;;;;4924111;29;20188;-84
2024/03/24 07:33:07;;;;;;;1.10;0.80;;;9.40;98.40;;;;;;4922256;29;20689;-83
2024/03/24 07:35:33;;;;;;;1.00;0.90;;;11.00;94.20;;;;;;4921885;29;20203;-83
2024/03/24 07:37:58;;;;;;;1.13;1.02;;;11.30;94.50;;;;;;4918987;29;20189;-83
2024/03/24 07:40:24;;;;;;;1.60;0.80;;;12.10;91.70;;;;;;4924716;29;20694;-83
2024/03/24 07:42:50;;;;;;;1.00;0.80;;;13.40;88.50;;;;;;4926366;29;20235;-83
2024/03/24 07:45:15;;;;;;;2.67;1.10;;;13.50;83.30;;;;;;4920046;29;20446;-83
2024/03/24 07:47:42;;;;;;;3.57;1.10;;;14.50;81.60;;;;;;4920571;29;20207;-84
2024/03/24 07:50:08;;;;;;;1.25;0.90;;;15.60;80.10;;;;;;4927744;29;20252;-84
2024/03/24 07:52:33;;;;;;;1.40;1.02;;;15.60;72.10;;;;;;4920871;29;20194;-83
2024/03/24 07:54:59;;;;;;;0.80;0.70;;;15.60;70.60;;;;;;4919533;29;20276;-83
2024/03/24 07:57:24;;;;;;;1.10;0.90;;;16.20;69.60;;;;;;4923342;29;20217;-83
2024/03/24 07:59:50;;;;;;;3.33;1.07;;;16.60;66.00;;;;;;4922527;29;20213;-83
2024/03/24 08:02:15;;;;;;;1.53;1.10;;;16.60;65.10;;;;;;4918539;29;20209;-84
2024/03/24 08:04:41;;;;;;;1.13;0.90;;;16.40;64.10;;;;;;4921681;29;20685;-83
2024/03/24 08:07:06;;;;;;;1.20;1.10;;;17.40;64.50;;;;;;4922444;29;20206;-83
2024/03/24 08:09:32;;;;;;;1.17;0.97;;;16.80;65.10;;;;;;4936278;29;20201;-83
2024/03/24 08:11:58;;;;;;;0.93;0.93;;;16.90;68.30;;;;;;4920849;29;20579;-82
2024/03/24 08:14:23;;;;;;;1.43;0.80;;;15.80;66.50;;;;;;4934390;29;20449;-82
2024/03/24 08:16:49;;;;;;;1.37;0.90;;;16.50;67.10;;;;;;4926157;29;20730;-83
2024/03/24 08:19:14;;;;;;;1.00;0.70;;;17.30;64.90;;;;;;4919070;29;20291;-82
2024/03/24 08:21:40;;;;;;;2.40;0.80;;;16.60;65.10;;;;;;4921072;29;20208;-83
2024/03/24 08:24:06;;;;;;;1.70;0.93;;;16.50;65.00;;;;;;4923532;29;20221;-84
2024/03/24 08:26:31;;;;;;;1.00;0.80;;;16.40;65.10;;;;;;4917678;29;20206;-83
2024/03/24 08:28:57;;;;;;;2.80;0.70;;;16.10;64.60;;;;;;4924909;29;20214;-83
2024/03/24 08:31:24;;;;;;;1.10;1.00;;;15.20;66.00;;;;;;4923142;29;20201;-83
2024/03/24 08:33:50;;;;;;;1.52;0.80;;;14.90;69.40;;;;;;4918884;29;20189;-83
2024/03/24 08:36:17;;;;;;;6.40;0.90;;;15.60;68.90;;;;;;4926514;29;20209;-82
2024/03/24 08:38:42;;;;;;;1.40;1.00;;;15.80;68.10;;;;;;4935601;29;20273;-83
2024/03/24 08:41:12;;;;;;;1.63;1.10;;;15.40;66.10;;;;;;4922324;29;20278;-83
2024/03/24 08:43:38;;;;;;;1.60;1.00;;;15.70;66.00;;;;;;4916429;29;20204;-83
2024/03/24 08:46:03;;;;;;;1.13;0.80;;;16.30;66.10;;;;;;4923033;29;20723;-83
2024/03/24 08:48:29;;;;;;;1.53;1.23;;;15.70;66.10;;;;;;4920694;29;20185;-81
2024/03/24 08:50:54;;;;;;;1.10;1.00;;;15.10;68.10;;;;;;4926083;29;20416;-87
2024/03/24 08:53:21;;;;;;;1.20;0.90;;;14.10;68.00;;;;;;4920744;29;20973;-88
2024/03/24 08:55:47;;;;;;;1.15;1.02;;;13.40;69.90;;;;;;4928745;29;20209;-88
2024/03/24 08:58:13;;;;;;;1.20;1.10;;;13.10;73.40;;;;;;4927796;29;20194;-88
2024/03/24 09:00:40;;;;;;;2.33;1.30;;;12.80;73.50;;;;;;4923695;29;20209;-89
2024/03/24 09:03:05;;;;;;;1.58;1.20;;;12.00;74.50;;;;;;4920730;29;20193;-88
2024/03/24 09:05:32;;;;;;;1.43;1.10;;;11.10;77.10;;;;;;4922380;29;20240;-86
2024/03/24 09:07:58;;;;;;;3.38;1.30;;;11.10;77.70;;;;;;4923430;29;20287;-86
2024/03/24 09:10:23;;;;;;;3.67;1.50;;;10.70;77.90;;;;;;4918566;29;20223;-88
2024/03/24 09:12:50;;;;;;;2.67;1.60;;;10.80;80.40;;;;;;4920432;29;20202;-87
2024/03/24 09:15:18;;;;;;;1.67;1.33;;;10.80;80.10;;;;;;4918288;29;20183;-86
2024/03/24 09:17:43;;;;;;;2.00;1.40;;;10.20;80.70;;;;;;4923294;29;20216;-85
2024/03/24 09:20:09;;;;;;;3.10;1.20;;;10.20;81.80;;;;;;4926540;29;20203;-85
2024/03/24 09:22:35;;;;;;;4.43;1.50;;;10.00;82.30;;;;;;4920590;29;20207;-85
2024/03/24 09:25:00;;;;;;;3.13;1.70;;;9.90;84.10;;;;;;4926238;29;20184;-85
2024/03/24 09:27:26;;;;;;;1.70;1.30;;;9.70;84.30;;;;;;4922917;29;20553;-85
2024/03/24 09:29:52;;;;;;;1.97;1.40;;;9.80;86.10;;;;;;4925063;29;20184;-85
2024/03/24 09:32:17;;;;;;;2.30;1.45;;;9.70;85.70;;;;;;4922494;29;20183;-85
2024/03/24 09:34:43;;;;;;;1.20;1.00;;;10.00;84.10;;;;;;4923643;29;20210;-86
2024/03/24 09:37:09;;;;;;;2.30;1.60;;;9.80;84.90;;;;;;4917854;29;20280;-86
2024/03/24 09:39:34;;;;;;;2.13;1.63;;;10.00;84.60;;;;;;4919846;29;20544;-87
2024/03/24 09:42:03;;;;;;;1.70;1.43;;;9.80;86.40;;;;;;4920142;29;20190;-87
2024/03/24 09:44:30;;;;;;;1.83;1.58;;;9.70;86.60;;;;;;4918837;29;20232;-86
2024/03/24 09:46:59;;;;;;;5.65;1.30;;;9.70;86.80;;;;;;4912428;29;20267;-86
2024/03/24 09:49:26;;;;;;;2.60;1.50;;;9.90;87.80;;;;;;4921893;29;20239;-86
2024/03/24 09:51:53;;;;;;;1.77;1.58;;;11.50;89.10;;;;;;4901029;29;20191;-86
2024/03/24 09:54:18;;;;;;;1.70;1.40;;;9.60;87.90;;;;;;4938688;29;20200;-88
2024/03/24 09:56:44;;;;;;;2.13;1.70;;;9.60;88.90;;;;;;4921611;29;20303;-87
2024/03/24 09:59:10;;;;;;;2.55;1.77;;;9.40;89.70;;;;;;4918738;29;20297;-87
2024/03/24 10:01:40;;;;;;;6.80;2.10;;;9.20;90.00;;;;;;4933851;29;20756;-87
2024/03/24 10:04:06;;;;;;;2.40;1.30;;;9.30;90.60;;;;;;4925862;29;20196;-86
2024/03/24 10:06:32;;;;;;;3.42;1.40;;;9.20;90.40;;;;;;4943827;29;20208;-86
2024/03/24 10:08:57;;;;;;;3.23;2.13;;;9.50;90.90;;;;;;4925632;29;20211;-86
2024/03/24 10:11:27;;;;;;;3.57;1.47;;;9.40;90.80;;;;;;4928905;29;20468;-87
2024/03/24 10:13:54;;;;;;;1.63;1.50;;;9.30;90.60;;;;;;4929106;29;20199;-85
2024/03/24 10:16:19;;;;;;;2.00;1.55;;;9.40;90.40;;;;;;4945479;29;20211;-87
2024/03/24 10:18:45;;;;;;;3.87;1.90;;;9.70;90.30;;;;;;4930319;29;20225;-86
2024/03/24 10:21:11;;;;;;;2.00;1.33;;;9.90;90.60;;;;;;4924688;29;20450;-86
2024/03/24 10:23:40;;;;;;;3.25;1.70;;;9.60;90.30;;;;;;4935989;29;20183;-86
2024/03/24 10:26:06;;;;;;;1.90;1.63;;;10.10;89.30;;;;;;4923740;29;20199;-85
2024/03/24 10:28:32;;;;;;;2.88;1.60;;;10.30;89.50;;;;;;4921544;29;20302;-86
2024/03/24 10:31:09;;;;;;;1.75;1.58;;;10.30;88.70;;;;;;4920896;29;20192;-86
2024/03/24 10:33:36;;;;;;;3.03;1.40;;;10.20;88.30;;;;;;4924840;29;20213;-86
2024/03/24 10:36:03;;;;;;;2.17;1.40;;;9.80;89.50;;;;;;4917663;29;20214;-86
2024/03/24 10:38:29;;;;;;;2.53;1.73;;;9.90;90.40;;;;;;4922871;29;20188;-86
2024/03/24 10:40:59;;;;;;;1.90;1.50;;;10.00;90.10;;;;;;4920076;29;20266;-86
2024/03/24 10:43:25;;;;;;;2.85;1.80;;;10.10;89.40;;;;;;4932983;29;20196;-86
2024/03/24 10:45:55;;;;;;;1.40;1.30;;;11.00;88.50;;;;;;4934381;29;20272;-86
2024/03/24 10:48:31;;;;;;;2.17;1.40;;;11.10;87.40;;;;;;4918737;29;20243;-86
2024/03/24 10:50:59;;;;;;;2.42;2.05;;;10.80;87.50;;;;;;4936558;29;20202;-85
2024/03/24 10:53:27;;;;;;;1.88;1.55;;;11.00;88.50;;;;;;4919482;29;20194;-86
2024/03/24 10:55:56;;;;;;;3.75;1.80;;;11.10;87.60;;;;;;4920762;29;20246;-85
2024/03/24 10:58:25;;;;;;;2.90;1.60;;;11.30;87.60;;;;;;4923784;29;20245;-87
2024/03/24 11:00:51;;;;;;;1.65;1.20;;;11.80;85.20;;;;;;4930737;29;20248;-87
2024/03/24 11:03:26;;;;;;;1.52;1.17;;;12.40;83.00;;;;;;4922893;29;20182;-87
2024/03/24 11:05:56;;;;;;;1.70;1.60;;;12.60;79.70;;;;;;4936162;29;20209;-89
2024/03/24 11:08:26;;;;;;;1.90;1.70;;;11.20;80.10;;;;;;4918541;29;20201;-86
2024/03/24 11:10:54;;;;;;;3.55;1.67;;;12.20;79.30;;;;;;4928823;29;20197;-91
2024/03/24 11:13:28;;;;;;;2.65;1.90;;;11.10;80.10;;;;;;4912525;29;20330;-88
2024/03/24 11:15:56;;;;;;;3.53;2.60;;;11.30;82.60;;;;;;4917099;29;20240;-88
2024/03/24 11:18:24;;;;;;;2.78;1.80;;;11.40;83.80;;;;;;4935384;29;20603;-87
2024/03/24 11:20:54;;;;;;;1.30;1.20;;;10.50;83.40;;;;;;4920143;29;20212;-87
2024/03/24 11:23:21;;;;;;;2.40;1.35;;;11.30;83.40;;;;;;4919515;29;20193;-87
2024/03/24 11:25:56;;;;;;;4.22;1.48;;;11.20;83.20;;;;;;4922626;29;20237;-88
2024/03/24 11:28:53;;;;;;;1.60;1.30;;;11.10;84.10;;;;;;4921844;29;20183;-88
2024/03/24 11:31:22;;;;;;;1.63;1.40;;;10.90;87.10;;;;;;4909719;29;20191;-88
2024/03/24 11:33:59;;;;;;;4.63;2.05;;;10.50;88.50;;;;;;4932250;29;20192;-87
2024/03/24 11:36:38;;;;;;;;;;;;;;;;;;;;;
2024/03/24 11:39:11;;;;;;;2.95;1.52;;;9.90;91.50;;;;;;4937768;29;20199;-90
2024/03/24 11:41:37;;;;;;;2.75;1.55;;;;;;;;;;4918244;29;20211;-90
2024/03/24 11:44:03;;;;;;;4.25;1.65;;;10.10;91.40;;;;;;4925947;29;20195;-89
2024/03/24 11:46:36;;;;;;;2.67;1.60;;;10.60;91.10;;;;;;4916487;29;20219;-90
2024/03/24 11:49:02;;;;;;;2.83;1.60;;;10.80;91.10;;;;;;4911881;29;20227;-90
2024/03/24 11:51:38;;;;;;;3.05;1.45;;;10.50;89.50;;;;;;4916215;29;20180;-87
2024/03/24 11:54:28;;;;;;;1.60;1.50;;;10.60;89.80;;;;;;4916725;29;20211;-90
2024/03/24 11:56:57;;;;;;;1.70;1.45;;;10.40;88.70;;;;;;4914075;29;20314;-90
2024/03/24 11:59:26;;;;;;;3.28;1.58;;;;;;;;;;4910892;29;20407;-90
2024/03/24 12:01:57;;;;;;;1.63;1.48;;;11.20;88.30;;;;;;4931371;29;20232;-88
2024/03/24 12:04:24;;;;;;;1.77;1.40;;;11.20;85.90;;;;;;4916212;29;20215;-89
2024/03/24 12:07:05;;;;;;;3.15;1.50;;;11.50;86.00;;;;;;4913105;29;20206;-89
2024/03/24 12:09:33;;;;;;;1.85;1.65;;;;;;;;;;4912753;29;20211;-89
2024/03/24 12:12:02;;;;;;;1.75;1.20;;;;;;;;;;4929498;29;20200;-89
2024/03/24 12:14:31;;;;;;;1.30;1.20;;;;;;;;;;4929134;29;20197;-89
2024/03/24 12:17:23;;;;;;;;;;;;;;;;;;;;;
2024/03/24 12:20:14;;;;;;;5.30;2.42;;;10.40;88.30;;;;;;4931950;29;20288;-89
2024/03/24 12:22:45;;;;;;;1.60;1.50;;;10.50;89.20;;;;;;4913871;29;20247;-89
2024/03/24 12:25:13;;;;;;;3.42;1.50;;;10.30;89.50;;;;;;4909968;29;20201;-89
2024/03/24 12:27:39;;;;;;;1.58;1.27;;;;;;;;;;4915723;29;20211;-88
2024/03/24 12:30:05;;;;;;;2.00;1.20;;;10.10;90.90;;;;;;4926619;29;20207;-90
2024/03/24 12:32:31;;;;;;;3.40;1.50;;;10.10;91.10;;;;;;4933468;29;20194;-89
2024/03/24 12:35:01;;;;;;;2.13;1.42;;;10.20;92.50;;;;;;4919441;29;20218;-91
2024/03/24 12:37:28;;;;;;;2.33;1.48;;;9.60;93.30;;;;;;4919022;29;20207;-90
2024/03/24 12:39:53;;;;;;;3.00;1.30;;;10.00;93.80;;;;;;4922490;29;20195;-90
2024/03/24 12:42:20;;;;;;;2.23;1.70;;;9.70;93.80;;;;;;4919747;29;20193;-89
2024/03/24 12:44:46;;;;;;;2.05;1.25;;;9.70;94.30;;;;;;4932918;29;20229;-88
2024/03/24 12:47:15;;;;;;;2.43;1.70;;;9.60;93.60;;;;;;4916528;29;20293;-89
2024/03/24 12:49:41;;;;;;;1.80;1.70;;;9.40;93.50;;;;;;4917028;29;20189;-90
2024/03/24 12:52:08;;;;;;;4.33;1.50;;;9.70;93.30;;;;;;4915125;29;20201;-89
2024/03/24 12:54:34;;;;;;;2.78;1.33;;;9.50;93.50;;;;;;4913891;29;20454;-89